This is the latest recevied weather packets stored in our database for station/object NW1E. If no packets are shown the sender has not sent any weather packets the latest 10 day(s).
| Time | Temp. | Humidity | Pressure | Rain* | Wind** | Luminosity | Snow |
|---|---|---|---|---|---|---|---|
| 1777092519 | 20.56° C | 84% | 1012.4 hPa | 0 mm | - | 0 W/m² | - |
| 1777083516 | 21.67° C | 74% | 1012.2 hPa | 0 mm | - | 0 W/m² | - |
| 1777082198 | 22.22° C | 73% | 1012.1 hPa | 0 mm | - | 0 W/m² | - |
| 1777080375 | 22.78° C | 70% | 1011.5 hPa | 0 mm | - | 0 W/m² | - |
| 1777079315 | 22.78° C | 70% | 1011.4 hPa | 0 mm | - | 0 W/m² | - |
| 1777079013 | 23.33° C | 69% | 1011.3 hPa | 0 mm | - | 0 W/m² | - |
| 1777077814 | 23.89° C | 66% | 1011.2 hPa | 0 mm | - | 0 W/m² | - |
| 1777076912 | 24.44° C | 64% | 1011.1 hPa | 0 mm | - | 0 W/m² | - |
| 1777074215 | 26.11° C | 62% | 1011.1 hPa | 0 mm | - | 12 W/m² | - |
| 1777073607 | 26.11° C | 61% | 1011.1 hPa | 0 mm | - | 19 W/m² | - |
| 1777073305 | 26.11° C | 61% | 1010.9 hPa | 0 mm | - | 21 W/m² | - |
| 1777073004 | 26.11° C | 61% | 1010.9 hPa | 0 mm | - | 23 W/m² | - |
| 1777071201 | 26.67° C | 60% | 1010.8 hPa | 0 mm | - | 39 W/m² | - |
| 1777071084 | 26.67° C | 60% | 1010.9 hPa | 0 mm | - | 41 W/m² | - |
| 1777069996 | 27.22° C | 57% | 1010.9 hPa | 0 mm | - | 46 W/m² | - |
| 1777069396 | 27.78° C | 56% | 1010.8 hPa | 0 mm | - | 51 W/m² | - |
| 1777069097 | 27.78° C | 55% | 1010.8 hPa | 0 mm | - | 53 W/m² | - |
| 1777068196 | 28.33° C | 53% | 1010.7 hPa | 0 mm | - | 304 W/m² | - |
| 1777065783 | 28.89° C | 53% | 1010.7 hPa | 0 mm | - | 401 W/m² | - |
| 1777064578 | 29.44° C | 52% | 1010.7 hPa | 0 mm | - | 559 W/m² | - |
| 1777061852 | 30° C | 52% | 1011 hPa | 0 mm | - | 573 W/m² | - |
| 1777060652 | 29.44° C | 53% | 1011.1 hPa | 0 mm | - | 612 W/m² | - |
| 1777058552 | 30.56° C | 49% | 1011.6 hPa | 0 mm | - | 839 W/m² | - |
| 1777056753 | 30.56° C | 47% | 1011.8 hPa | 0 mm | - | 969 W/m² | - |
| 1777054651 | 31.11° C | 45% | 1012.3 hPa | 0 mm | - | 1023 W/m² | - |
* Rain latest hour (hover to see other rain measurements)
** Current wind speed in m/s (hover to see current wind gust speed)